| time (UTC) | temp F | wind direction | speed knots | gust knots | rain 1hr in | rain 24hr in | rain mn in | humidity % | barometer mb |
| 20260903084601 | 82 | 0 | 0.9 | 1.7 | 0.00 | 0.01 | 0.00 | 33 | 1021.0 |
| 20260903083601 | 81 | 0 | 0.9 | 0.9 | 0.00 | 0.01 | 0.00 | 35 | 1021.0 |
| 20260903082601 | 88 | 0 | 0.0 | 0.9 | 0.00 | 0.01 | 0.00 | 29 | 1021.5 |
| 20260903081601 | 86 | 0 | 0.9 | 0.9 | 0.00 | 0.01 | 0.00 | 30 | 1021.4 |
| 20260903080601 | 82 | 0 | 0.9 | 0.9 | 0.00 | 0.01 | 0.00 | 33 | 1021.2 |
| 20260903075601 | 82 | 0 | 0.9 | 1.7 | 0.00 | 0.01 | 0.00 | 32 | 1021.4 |
| 20260903073601 | 81 | 0 | 0.0 | 0.9 | 0.00 | 0.01 | 0.00 | 38 | 1021.5 |
| 20260903072601 | 79 | 0 | 0.0 | 0.9 | 0.00 | 0.01 | 0.00 | 42 | 1021.6 |
| 20260903071601 | 77 | 0 | 0.9 | 0.9 | 0.00 | 0.01 | 0.00 | 44 | 1021.4 |
| 20260903070601 | 75 | 0 | 0.0 | 0.9 | 0.00 | 0.01 | 0.00 | 48 | 1021.5 |
| 20260903065601 | 71 | 0 | 0.0 | 0.9 | 0.00 | 0.01 | 0.00 | 53 | 1021.5 |
| 20260903064601 | 71 | 0 | 0.0 | 0.9 | 0.00 | 0.01 | 0.00 | 58 | 1021.6 |
| 20260903063601 | 66 | 0 | 0.0 | 0.9 | 0.00 | 0.01 | 0.00 | 64 | 1021.5 |
| 20260903061601 | 62 | 0 | 0.0 | 0.0 | 0.00 | 0.01 | 0.00 | 73 | 1021.4 |
| 20260903054601 | 66 | 0 | 0.0 | 0.0 | 0.00 | 0.01 | 0.00 | 66 | 1021.1 |
| 20260903052601 | 61 | 0 | 0.0 | 0.0 | 0.00 | 0.01 | 0.00 | 76 | 1021.0 |
| 20260903051601 | 58 | 0 | 0.0 | 0.0 | 0.00 | 0.01 | 0.00 | 83 | 1021.0 |
| 20260903050601 | 55 | 0 | 0.0 | 0.0 | 0.00 | 0.01 | 0.00 | 90 | 1020.9 |
| 20260903045601 | 55 | 0 | 0.0 | 0.0 | 0.00 | 0.01 | 0.00 | 91 | 1020.8 |
| 20260903044601 | 55 | 0 | 0.0 | 0.0 | 0.00 | 0.01 | 0.00 | 91 | 1020.9 |
| 20260903043601 | 55 | 0 | 0.0 | 0.0 | 0.00 | 0.01 | 0.00 | 91 | 1020.9 |
| 20260903042601 | 56 | 0 | 0.0 | 0.0 | 0.00 | 0.01 | 0.00 | 90 | 1020.9 |
| 20260903041601 | 56 | 0 | 0.0 | 0.0 | 0.00 | 0.01 | 0.00 | 89 | 1021.0 |
| 20260903040601 | 56 | 0 | 0.0 | 0.0 | 0.00 | 0.01 | 0.00 | 88 | 1020.8 |
| 20260903035601 | 57 | 0 | 0.0 | 0.0 | 0.00 | 0.01 | 0.00 | 88 | 1020.7 |
| 20260903034601 | 57 | 0 | 0.0 | 0.0 | 0.00 | 0.01 | 0.00 | 87 | 1020.7 |
| 20260903033601 | 57 | 0 | 0.0 | 0.0 | 0.00 | 0.01 | 0.00 | 88 | 1020.7 |
| 20260903032601 | 57 | 0 | 0.0 | 0.0 | 0.00 | 0.01 | 0.00 | 88 | 1020.7 |
| 20260903031601 | 57 | 0 | 0.0 | 0.0 | 0.00 | 0.01 | 0.00 | 87 | 1020.7 |
| 20260903030601 | 57 | 0 | 0.0 | 0.0 | 0.00 | 0.01 | 0.00 | 88 | 1020.7 |
| 20260903025601 | 58 | 0 | 0.0 | 0.0 | 0.00 | 0.01 | 0.00 | 86 | 1020.7 |
| 20260903024601 | 58 | 0 | 0.0 | 0.0 | 0.00 | 0.01 | 0.00 | 86 | 1020.6 |
| 20260903023601 | 58 | 0 | 0.0 | 0.0 | 0.00 | 0.01 | 0.00 | 85 | 1020.6 |
| 20260903022601 | 58 | 0 | 0.0 | 0.0 | 0.00 | 0.01 | 0.00 | 84 | 1020.5 |
| 20260903021601 | 59 | 0 | 0.0 | 0.0 | 0.00 | 0.01 | 0.00 | 83 | 1020.5 |
| 20260903020601 | 58 | 0 | 0.0 | 0.0 | 0.00 | 0.01 | 0.00 | 84 | 1020.5 |
| 20260903015601 | 58 | 0 | 0.0 | 0.0 | 0.00 | 0.01 | 0.00 | 85 | 1020.4 |
| 20260903014601 | 59 | 0 | 0.0 | 0.0 | 0.00 | 0.01 | 0.00 | 83 | 1020.5 |
| 20260903013601 | 59 | 0 | 0.0 | 0.0 | 0.00 | 0.01 | 0.00 | 84 | 1020.5 |
| 20260903012601 | 59 | 0 | 0.0 | 0.0 | 0.00 | 0.01 | 0.00 | 83 | 1020.5 |
| 20260903011601 | 59 | 0 | 0.0 | 0.0 | 0.00 | 0.01 | 0.00 | 83 | 1020.5 |
| 20260903010601 | 59 | 0 | 0.0 | 0.0 | 0.00 | 0.01 | 0.00 | 83 | 1020.4 |
| 20260903005601 | 59 | 0 | 0.0 | 0.0 | 0.00 | 0.01 | 0.00 | 82 | 1020.4 |
| 20260903004601 | 59 | 0 | 0.0 | 0.0 | 0.00 | 0.01 | 0.00 | 84 | 1020.5 |
| 20260903003601 | 59 | 0 | 0.0 | 0.0 | 0.00 | 0.01 | 0.00 | 81 | 1020.4 |
| 20260903002601 | 59 | 0 | 0.0 | 0.0 | 0.00 | 0.01 | 0.00 | 82 | 1020.4 |
| 20260903001601 | 59 | 0 | 0.0 | 0.0 | 0.00 | 0.01 | 0.00 | 83 | 1020.5 |
| 20260903000601 | 59 | 0 | 0.0 | 0.0 | 0.00 | 0.01 | 0.00 | 82 | 1020.4 |
| 20260902235601 | 59 | 0 | 0.0 | 0.0 | 0.00 | 0.01 | 0.00 | 81 | 1020.4 |
| 20260902234601 | 59 | 0 | 0.0 | 0.0 | 0.00 | 0.01 | 0.00 | 82 | 1020.4 |
| 20260902233601 | 59 | 0 | 0.0 | 0.0 | 0.00 | 0.01 | 0.00 | 82 | 1020.5 |
| 20260902232601 | 59 | 0 | 0.0 | 0.0 | 0.00 | 0.01 | 0.00 | 80 | 1020.5 |
| 20260902231601 | 59 | 0 | 0.0 | 0.0 | 0.00 | 0.01 | 0.00 | 82 | 1020.5 |
| 20260902230601 | 59 | 0 | 0.0 | 0.0 | 0.00 | 0.01 | 0.00 | 80 | 1020.5 |
| 20260902225601 | 59 | 0 | 0.0 | 0.0 | 0.00 | 0.01 | 0.00 | 80 | 1020.5 |
| 20260902224601 | 59 | 0 | 0.0 | 0.0 | 0.00 | 0.01 | 0.00 | 81 | 1020.5 |
| 20260902222601 | 59 | 0 | 0.0 | 0.0 | 0.00 | 0.01 | 0.00 | 79 | 1020.7 |
| 20260902221601 | 59 | 0 | 0.0 | 0.0 | 0.00 | 0.01 | 0.00 | 80 | 1020.6 |
| 20260902220601 | 59 | 0 | 0.0 | 0.0 | 0.00 | 0.01 | 0.00 | 79 | 1020.5 |
| 20260902215601 | 58 | 0 | 0.0 | 0.0 | 0.00 | 0.01 | 0.00 | 80 | 1020.5 |
| 20260902214601 | 58 | 0 | 0.0 | 0.0 | 0.00 | 0.01 | 0.00 | 81 | 1020.5 |
| 20260902213601 | 58 | 0 | 0.0 | 0.0 | 0.00 | 0.01 | 0.00 | 81 | 1020.4 |
| 20260902212601 | 59 | 0 | 0.0 | 0.0 | 0.00 | 0.01 | 0.00 | 80 | 1020.4 |
| 20260902210601 | 59 | 0 | 0.0 | 0.0 | 0.00 | 0.01 | 0.00 | 80 | 1020.2 |
| 20260902205601 | 59 | 0 | 0.0 | 0.0 | 0.00 | 0.01 | 0.00 | 80 | 1020.2 |
| 20260902204601 | 60 | 0 | 0.0 | 0.0 | 0.00 | 0.01 | 0.00 | 76 | 1020.1 |
| 20260902203601 | 60 | 0 | 0.0 | 0.0 | 0.00 | 0.01 | 0.00 | 75 | 1020.0 |
| 20260902202601 | 60 | 0 | 0.0 | 0.0 | 0.00 | 0.01 | 0.00 | 76 | 1020.0 |
| 20260902200601 | 60 | 0 | 0.0 | 0.0 | 0.01 | 0.01 | 0.00 | 77 | 1019.9 |
| 20260902195601 | 61 | 0 | 0.0 | 0.0 | 0.01 | 0.01 | 0.00 | 72 | 1019.8 |
| 20260902194601 | 61 | 0 | 0.0 | 0.0 | 0.01 | 0.01 | 0.00 | 73 | 1019.7 |
| 20260902193601 | 61 | 0 | 0.0 | 0.0 | 0.01 | 0.01 | 0.00 | 75 | 1019.7 |
| 20260902192601 | 62 | 0 | 0.0 | 0.0 | 0.01 | 0.01 | 0.00 | 73 | 1019.7 |
| 20260902191601 | 62 | 0 | 0.0 | 0.0 | 0.01 | 0.01 | 0.00 | 74 | 1019.6 |
| 20260902190558 | 63 | 13 | 0.0 | 0.0 | 0.00 | 0.00 | 0.00 | 73 | 1019.7 |
| 20260902190234 | 62 | 11 | 0.0 | 0.0 | 0.00 | 0.00 | 0.00 | 72 | 1019.6 |
| 20260902185822 | 62 | 12 | 0.0 | 0.0 | 0.00 | 0.00 | 0.00 | 72 | 1019.5 |
| 20260902185400 | 32 | 11 | 0.0 | 0.0 | 0.00 | 0.00 | 0.00 | 100 | 1013.2 |
| 20260902185239 | 32 | 11 | 0.0 | 0.0 | 0.00 | 0.00 | 0.00 | 100 | 1013.2 |
| 20260902185211 | 32 | 12 | 0.0 | 0.0 | 0.00 | 0.00 | 0.00 | 100 | 1013.2 |
| 20260902184407 | 32 | 13 | 0.0 | 0.0 | 0.00 | 0.00 | 0.00 | 100 | 1013.2 |
| 20260902184038 | 32 | 0 | 0.0 | 0.0 | 0.00 | 0.00 | 0.00 | 100 | 1013.2 |
| 20260902183038 | 32 | 0 | 0.0 | 0.0 | 0.00 | 0.00 | 0.00 | 100 | 1013.2 |
| 20260902182038 | 32 | 0 | 0.0 | 0.0 | 0.00 | 0.00 | 0.00 | 100 | 1013.2 |
| 20260902181038 | 32 | 0 | 0.0 | 0.0 | 0.00 | 0.00 | 0.00 | 100 | 1013.2 |
| 20260902180038 | 32 | 0 | 0.0 | 0.0 | 0.00 | 0.00 | 0.00 | 100 | 1013.2 |
| 20260902175038 | 32 | 0 | 0.0 | 0.0 | 0.00 | 0.00 | 0.00 | 100 | 1013.2 |
| 20260902174038 | 32 | 0 | 0.0 | 0.0 | 0.00 | 0.00 | 0.00 | 100 | 1013.2 |
| 20260902173038 | 32 | 0 | 0.0 | 0.0 | 0.00 | 0.00 | 0.00 | 100 | 1013.2 |
| 20260902172038 | 32 | 0 | 0.0 | 0.0 | 0.00 | 0.00 | 0.00 | 100 | 1013.2 |
| 20260902171038 | 32 | 0 | 0.0 | 0.0 | 0.00 | 0.00 | 0.00 | 100 | 1013.2 |
| 20260902170030 | 32 | 14 | 0.0 | 0.0 | 0.00 | 0.00 | 0.00 | 100 | 1013.2 |
| 20260902165945 | 32 | 19 | 0.0 | 0.0 | 0.00 | 0.00 | 0.00 | 100 | 1013.2 |
| 20260902134357 | 78 | 0 | 0.0 | 0.0 | 0.00 | 0.00 | 0.00 | 100 | 1021.6 |
| 20260902133357 | 78 | 0 | 0.0 | 0.0 | 0.00 | 0.00 | 0.00 | 100 | 1021.6 |
| 20260902132357 | 77 | 0 | 0.0 | 0.0 | 0.00 | 0.00 | 0.00 | 100 | 1021.7 |
| 20260902131357 | 77 | 0 | 0.0 | 0.0 | 0.00 | 0.00 | 0.00 | 100 | 1021.8 |
| 20260902130357 | 77 | 0 | 0.0 | 0.0 | 0.00 | 0.00 | 0.00 | 100 | 1021.7 |
| 20260902125357 | 77 | 0 | 0.0 | 0.0 | 0.00 | 0.00 | 0.00 | 100 | 1021.9 |
| 20260902124357 | 77 | 0 | 0.0 | 0.0 | 0.00 | 0.00 | 0.00 | 100 | 1022.0 |
| 20260902123357 | 77 | 0 | 0.0 | 0.0 | 0.00 | 0.00 | 0.00 | 100 | 1022.2 |
| 20260902122357 | 77 | 0 | 0.0 | 0.0 | 0.00 | 0.00 | 0.00 | 100 | 1022.2 |
| 20260902121357 | 77 | 0 | 0.0 | 0.0 | 0.00 | 0.00 | 0.00 | 100 | 1022.3 |
| 20260902120357 | 77 | 0 | 0.0 | 0.0 | 0.00 | 0.00 | 0.00 | 100 | 1022.4 |
| 20260902115357 | 76 | 0 | 0.0 | 0.0 | 0.00 | 0.00 | 0.00 | 100 | 1022.4 |
| 20260902114357 | 76 | 0 | 0.0 | 0.0 | 0.00 | 0.00 | 0.00 | 100 | 1022.5 |
| 20260902113357 | 76 | 0 | 0.0 | 0.0 | 0.00 | 0.00 | 0.00 | 100 | 1022.5 |
| 20260902112357 | 76 | 0 | 0.0 | 0.0 | 0.00 | 0.00 | 0.00 | 100 | 1022.5 |
| 20260902111357 | 76 | 0 | 0.0 | 0.0 | 0.00 | 0.00 | 0.00 | 100 | 1022.6 |
| 20260902110356 | 76 | 0 | 0.0 | 0.0 | 0.00 | 0.00 | 0.00 | 100 | 1022.6 |
| 20260902105356 | 76 | 0 | 0.0 | 0.0 | 0.00 | 0.00 | 0.00 | 100 | 1022.7 |
| 20260902104356 | 75 | 0 | 0.0 | 0.0 | 0.00 | 0.00 | 0.00 | 100 | 1022.8 |
| 20260902102356 | 75 | 0 | 0.0 | 0.0 | 0.00 | 0.00 | 0.00 | 100 | 1023.0 |
| 20260902100356 | 75 | 0 | 0.0 | 0.0 | 0.00 | 0.00 | 0.00 | 100 | 1023.2 |
| 20260902095356 | 75 | 0 | 0.0 | 0.0 | 0.00 | 0.00 | 0.00 | 100 | 1023.2 |
| 20260902093356 | 74 | 0 | 0.0 | 0.0 | 0.00 | 0.00 | 0.00 | 100 | 1023.2 |
| 20260902092356 | 74 | 0 | 0.0 | 0.0 | 0.00 | 0.00 | 0.00 | 100 | 1023.3 |